createdAt,value
2019-02-20T00:00:56.935Z,21.41
2019-02-20T00:06:00.411Z,21.39
2019-02-20T00:11:03.886Z,21.38
2019-02-20T00:16:07.374Z,21.38
2019-02-20T00:21:10.885Z,21.35
2019-02-20T00:26:14.371Z,21.35
2019-02-20T00:31:17.845Z,21.33
2019-02-20T00:36:21.337Z,21.32
2019-02-20T00:41:24.828Z,21.33
2019-02-20T00:46:29.942Z,21.32
2019-02-20T00:51:35.076Z,21.30
2019-02-20T00:56:38.564Z,21.30
2019-02-20T01:01:42.056Z,21.29
2019-02-20T01:06:45.544Z,21.29
2019-02-20T01:11:49.030Z,21.29
2019-02-20T01:16:52.519Z,21.28
2019-02-20T01:21:56.117Z,21.29
2019-02-20T01:26:59.575Z,21.28
2019-02-20T01:32:03.074Z,21.25
2019-02-20T01:37:06.563Z,21.26
2019-02-20T01:42:10.059Z,21.26
2019-02-20T01:47:13.551Z,21.26
2019-02-20T01:52:17.027Z,21.26
2019-02-20T01:57:20.498Z,21.25
2019-02-20T02:02:23.973Z,21.24
2019-02-20T02:07:27.450Z,21.24
2019-02-20T02:12:30.922Z,21.24
2019-02-20T02:17:34.410Z,21.24
2019-02-20T02:22:37.878Z,21.24
2019-02-20T02:27:41.356Z,21.23
2019-02-20T02:32:44.836Z,21.23
2019-02-20T02:37:48.331Z,21.23
2019-02-20T02:42:51.868Z,21.22
2019-02-20T02:47:55.346Z,21.23
2019-02-20T02:52:58.822Z,21.22
2019-02-20T02:58:02.299Z,21.21
2019-02-20T03:03:05.777Z,21.21
2019-02-20T03:08:09.253Z,21.21
2019-02-20T03:13:12.726Z,21.21
2019-02-20T03:18:16.208Z,21.21
2019-02-20T03:23:19.675Z,21.21
2019-02-20T03:28:23.151Z,21.20
2019-02-20T03:33:26.630Z,21.20
2019-02-20T03:38:30.743Z,21.19
2019-02-20T03:43:34.351Z,21.19
2019-02-20T03:48:37.826Z,21.19
2019-02-20T03:53:50.887Z,21.18
2019-02-20T03:58:46.498Z,21.18
2019-02-20T04:03:49.974Z,21.18
2019-02-20T04:08:53.449Z,21.17
2019-02-20T04:13:56.939Z,21.17
2019-02-20T04:19:00.416Z,21.18
2019-02-20T04:24:03.918Z,21.18
2019-02-20T04:29:07.383Z,21.17
2019-02-20T04:34:10.858Z,21.17
2019-02-20T04:39:14.333Z,21.17
2019-02-20T04:44:17.825Z,21.17
2019-02-20T04:49:21.328Z,21.17
2019-02-20T04:54:24.819Z,21.19
2019-02-20T04:59:28.405Z,21.20
2019-02-20T05:04:31.949Z,21.19
2019-02-20T05:09:35.426Z,21.20
2019-02-20T05:14:38.907Z,21.20
2019-02-20T05:19:42.381Z,21.20
2019-02-20T05:24:45.866Z,21.19
2019-02-20T05:29:49.326Z,21.19
2019-02-20T05:34:52.817Z,21.19
2019-02-20T05:39:56.333Z,21.19
2019-02-20T05:44:59.823Z,21.19
2019-02-20T05:50:03.388Z,21.18
2019-02-20T05:55:07.513Z,21.18
2019-02-20T06:00:13.153Z,21.17
2019-02-20T06:05:16.638Z,21.17
2019-02-20T06:10:20.130Z,21.18
2019-02-20T06:15:23.639Z,21.17
2019-02-20T06:20:27.134Z,21.17
2019-02-20T06:25:30.628Z,21.17
2019-02-20T06:30:34.119Z,21.16
2019-02-20T06:35:37.645Z,21.16
2019-02-20T06:40:41.170Z,21.16
2019-02-20T06:45:44.637Z,21.16
2019-02-20T06:50:48.125Z,21.16
2019-02-20T06:55:51.619Z,21.14
2019-02-20T07:00:55.120Z,21.15
2019-02-20T07:06:01.664Z,21.14
2019-02-20T07:11:22.717Z,21.14
2019-02-20T07:16:44.220Z,21.14
2019-02-20T07:21:59.762Z,21.15
2019-02-20T07:27:15.307Z,21.14
2019-02-20T07:32:18.784Z,21.14
2019-02-20T07:37:22.262Z,21.06
2019-02-20T07:42:25.736Z,21.06
2019-02-20T07:47:29.206Z,21.14
2019-02-20T07:52:32.681Z,21.14
2019-02-20T07:57:36.161Z,21.11
2019-02-20T08:02:39.636Z,20.49
2019-02-20T08:07:43.112Z,19.80
2019-02-20T08:12:46.600Z,19.18
2019-02-20T08:17:50.071Z,18.53
2019-02-20T08:22:53.586Z,18.16
2019-02-20T08:27:57.026Z,17.65
2019-02-20T08:33:00.520Z,18.05
2019-02-20T08:38:03.977Z,18.56
2019-02-20T08:43:07.457Z,18.86
2019-02-20T08:48:10.927Z,19.10
2019-02-20T08:53:14.417Z,19.28
2019-02-20T08:58:17.890Z,19.44
2019-02-20T09:03:21.368Z,19.56
2019-02-20T09:08:24.913Z,19.68
2019-02-20T09:13:28.404Z,19.79
2019-02-20T09:18:31.863Z,19.88
2019-02-20T09:23:35.334Z,19.96
2019-02-20T09:28:38.810Z,20.04
2019-02-20T09:33:42.304Z,20.11
2019-02-20T09:38:45.766Z,20.17
2019-02-20T09:43:49.244Z,20.24
2019-02-20T09:48:52.716Z,20.29
2019-02-20T09:53:56.208Z,20.35
2019-02-20T09:58:59.692Z,20.41
2019-02-20T10:04:03.176Z,20.47
2019-02-20T10:09:06.646Z,20.51
2019-02-20T10:14:10.125Z,20.57
2019-02-20T10:19:13.598Z,20.62
2019-02-20T10:24:17.078Z,20.67
2019-02-20T10:29:20.550Z,20.70
2019-02-20T10:34:24.027Z,20.72
2019-02-20T10:39:27.498Z,20.76
2019-02-20T10:44:30.978Z,20.78
2019-02-20T10:49:34.451Z,20.82
2019-02-20T10:54:37.925Z,20.86
2019-02-20T10:59:41.404Z,20.88
2019-02-20T11:04:44.870Z,20.92
2019-02-20T11:09:48.344Z,20.95
2019-02-20T11:14:51.824Z,20.98
2019-02-20T11:19:55.295Z,21.01
2019-02-20T11:24:58.766Z,21.04
2019-02-20T11:30:02.265Z,21.06
2019-02-20T11:35:07.373Z,21.08
2019-02-20T11:40:12.399Z,21.10
2019-02-20T11:45:16.912Z,21.11
2019-02-20T11:50:20.391Z,21.15
2019-02-20T11:55:23.863Z,21.16
2019-02-20T12:00:27.347Z,21.18
2019-02-20T12:05:30.821Z,21.20
2019-02-20T12:10:34.294Z,21.22
2019-02-20T12:15:37.776Z,21.22
2019-02-20T12:20:41.517Z,21.24
2019-02-20T12:25:45.071Z,21.24
2019-02-20T12:30:48.543Z,21.26
2019-02-20T12:35:52.010Z,21.28
2019-02-20T12:40:55.490Z,21.28
2019-02-20T12:45:59.034Z,21.30
2019-02-20T12:51:02.510Z,21.32
2019-02-20T12:56:10.040Z,21.32
2019-02-20T13:01:11.213Z,21.34
2019-02-20T13:06:14.682Z,21.34
2019-02-20T13:11:18.287Z,21.34
2019-02-20T13:16:21.769Z,21.33
2019-02-20T13:21:25.250Z,21.34
2019-02-20T13:26:28.722Z,21.34
2019-02-20T13:31:32.194Z,21.35
2019-02-20T13:36:35.666Z,21.35
2019-02-20T13:41:39.143Z,21.36
2019-02-20T13:46:43.475Z,21.35
2019-02-20T13:51:47.422Z,21.39
2019-02-20T13:56:50.902Z,21.41
2019-02-20T14:01:54.374Z,21.43
2019-02-20T14:06:59.728Z,21.45
2019-02-20T14:12:03.051Z,21.46
2019-02-20T14:17:06.531Z,21.45
2019-02-20T14:22:10.002Z,21.46
2019-02-20T14:27:13.478Z,21.46
2019-02-20T14:32:16.949Z,21.45
2019-02-20T14:37:20.422Z,21.43
2019-02-20T14:42:23.914Z,21.44
2019-02-20T14:47:27.367Z,21.43
2019-02-20T14:52:30.843Z,21.43
2019-02-20T14:57:34.498Z,21.44
2019-02-20T15:02:37.976Z,21.43
2019-02-20T15:07:41.451Z,21.44
2019-02-20T15:12:46.635Z,21.45
2019-02-20T15:17:50.291Z,21.43
2019-02-20T15:22:54.137Z,21.43
2019-02-20T15:27:57.616Z,21.41
2019-02-20T15:33:01.096Z,21.41
2019-02-20T15:38:05.222Z,21.41
2019-02-20T15:43:08.897Z,21.40
2019-02-20T15:48:12.656Z,21.39
2019-02-20T15:53:16.130Z,21.38
2019-02-20T15:58:19.608Z,21.37
2019-02-20T16:03:23.083Z,21.38
2019-02-20T16:08:26.559Z,21.38
2019-02-20T16:13:30.029Z,21.35
2019-02-20T16:18:33.581Z,21.35
2019-02-20T16:23:37.054Z,21.36
2019-02-20T16:28:40.532Z,21.34
2019-02-20T16:33:44.117Z,21.34
2019-02-20T16:38:47.562Z,21.34
2019-02-20T16:43:51.063Z,21.35
2019-02-20T16:48:54.539Z,21.35
2019-02-20T16:53:58.312Z,21.36
2019-02-20T16:59:01.787Z,21.38
2019-02-20T17:04:07.086Z,21.39
2019-02-20T17:09:10.863Z,21.38
2019-02-20T17:14:14.341Z,21.40
2019-02-20T17:19:18.172Z,21.42
2019-02-20T17:24:21.644Z,21.43
2019-02-20T17:29:25.122Z,21.44
2019-02-20T17:34:28.593Z,21.47
2019-02-20T17:39:32.141Z,21.48
2019-02-20T17:44:35.895Z,21.50
2019-02-20T17:49:39.370Z,21.50
2019-02-20T17:54:42.844Z,21.52
2019-02-20T17:59:46.326Z,21.53
2019-02-20T18:04:49.819Z,21.54
2019-02-20T18:09:53.317Z,21.54
2019-02-20T18:14:56.818Z,21.56
2019-02-20T18:20:00.316Z,21.55
2019-02-20T18:25:04.459Z,21.57
2019-02-20T18:30:13.523Z,21.57
2019-02-20T18:35:18.435Z,21.58
2019-02-20T18:40:21.915Z,21.58
2019-02-20T18:45:25.386Z,21.60
2019-02-20T18:50:28.863Z,21.60
2019-02-20T18:55:32.344Z,21.61
2019-02-20T19:00:35.819Z,21.60
2019-02-20T19:05:39.306Z,21.62
2019-02-20T19:10:42.783Z,21.62
2019-02-20T19:15:55.303Z,21.63
2019-02-20T19:21:13.729Z,21.63
2019-02-20T19:26:32.495Z,21.63
2019-02-20T19:31:39.124Z,21.62
2019-02-20T19:36:51.342Z,21.63
2019-02-20T19:41:57.879Z,21.63
2019-02-20T19:47:25.220Z,21.64
2019-02-20T19:52:49.925Z,21.64
2019-02-20T19:58:11.559Z,21.63
2019-02-20T20:03:40.749Z,21.64
2019-02-20T20:09:06.906Z,21.65
2019-02-20T20:14:25.183Z,21.65
2019-02-20T20:19:43.491Z,21.64
2019-02-20T20:24:58.535Z,21.65
2019-02-20T20:30:36.817Z,21.65
2019-02-20T20:36:09.142Z,21.63
2019-02-20T20:41:24.414Z,21.64
2019-02-20T20:46:36.485Z,21.64
2019-02-20T20:52:08.854Z,21.63
2019-02-20T20:57:30.237Z,21.63
2019-02-20T21:02:36.761Z,21.63
2019-02-20T21:07:55.426Z,21.62
2019-02-20T21:13:11.006Z,21.62
2019-02-20T21:18:32.282Z,21.62
2019-02-20T21:23:50.709Z,21.61
2019-02-20T21:29:12.082Z,21.61
2019-02-20T21:34:41.222Z,21.60
2019-02-20T21:39:47.751Z,21.60
2019-02-20T21:45:16.619Z,21.59
2019-02-20T21:50:43.948Z,21.58
2019-02-20T21:56:11.581Z,21.58
2019-02-20T22:01:24.046Z,21.58
2019-02-20T22:06:48.767Z,21.57
2019-02-20T22:11:57.774Z,21.57
2019-02-20T22:17:23.717Z,21.56
2019-02-20T22:22:30.250Z,21.57
2019-02-20T22:27:39.562Z,21.57
2019-02-20T22:32:46.089Z,21.56
2019-02-20T22:37:58.509Z,21.57
2019-02-20T22:43:10.789Z,21.56
2019-02-20T22:48:23.664Z,21.56
2019-02-20T22:53:51.531Z,21.55
2019-02-20T22:59:00.910Z,21.56
2019-02-20T23:04:15.789Z,21.55
2019-02-20T23:09:28.628Z,21.56
2019-02-20T23:14:44.025Z,21.55
2019-02-20T23:19:47.498Z,21.54
2019-02-20T23:24:50.975Z,21.54
2019-02-20T23:29:54.452Z,21.54
2019-02-20T23:34:57.933Z,21.54
2019-02-20T23:40:01.426Z,21.54
2019-02-20T23:45:07.605Z,21.53
2019-02-20T23:50:11.307Z,21.53
2019-02-20T23:55:14.782Z,21.52
